KLGU/LGU METAR and TAF weather

Enter ICAO airport designator
Station Type Date Time Source
KLGU METAR 2024/04/18 07:51 UTC NOAA

KLGU 180751Z AUTO 02004KT 10SM CLR 00/M04 A3021 RMK AO2 SLP227 T00001039


Station Type Date Time Source
KLGU Decoded METAR 2024/04/18 07:51 UTC NOAA

LOGAN CACHE AIRPORT, UT, United States (KLGU) 41-47N 111-51W 1355M
Apr 18, 2024 - 03:51 AM EDT / 2024.04.18 0751 UTC
Wind: from the NNE (020 degrees) at 5 MPH (4 KT):0
Visibility: 10 mile(s):0
Sky conditions: clear
Temperature: 32.0 F (0.0 C)
Windchill: 26 F (-3 C):1
Dew Point: 25.0 F (-3.9 C)
Relative Humidity: 74%
Pressure (altimeter): 30.21 in. Hg (1023 hPa)
ob: KLGU 180751Z AUTO 02004KT 10SM CLR 00/M04 A3021 RMK AO2 SLP227 T00001039
cycle: 8

Station Type Date Time Source
KLGU TAF 2024/04/18 07:36 UTC NOAA